createdAt,value
2022-11-17T00:00:06.033Z,1.80
2022-11-17T00:02:35.430Z,2.10
2022-11-17T00:05:03.363Z,1.57
2022-11-17T00:07:32.280Z,1.70
2022-11-17T00:10:00.190Z,2.10
2022-11-17T00:12:45.575Z,1.80
2022-11-17T00:15:13.534Z,2.13
2022-11-17T00:17:42.751Z,1.83
2022-11-17T00:20:29.909Z,2.00
2022-11-17T00:22:57.772Z,2.10
2022-11-17T00:25:25.627Z,2.23
2022-11-17T00:27:53.470Z,2.10
2022-11-17T00:30:40.508Z,2.00
2022-11-17T00:33:30.165Z,2.23
2022-11-17T00:35:58.028Z,1.97
2022-11-17T00:38:25.902Z,2.40
2022-11-17T00:40:53.913Z,2.17
2022-11-17T00:43:21.820Z,2.13
2022-11-17T00:45:49.699Z,2.20
2022-11-17T00:48:18.888Z,2.40
2022-11-17T00:50:46.752Z,2.27
2022-11-17T00:53:14.684Z,2.37
2022-11-17T00:55:44.051Z,2.17
2022-11-17T00:58:12.027Z,2.57
2022-11-17T01:00:40.479Z,2.40
2022-11-17T01:03:08.363Z,2.30
2022-11-17T01:05:37.592Z,2.37
2022-11-17T01:08:05.758Z,2.40
2022-11-17T01:10:35.653Z,2.37
2022-11-17T01:13:03.605Z,2.13
2022-11-17T01:15:31.527Z,2.33
2022-11-17T01:17:59.385Z,2.40
2022-11-17T01:20:27.715Z,2.30
2022-11-17T01:22:56.985Z,2.30
2022-11-17T01:25:24.854Z,1.97
2022-11-17T01:27:52.738Z,2.40
2022-11-17T01:30:20.737Z,2.50
2022-11-17T01:32:48.589Z,2.00
2022-11-17T01:35:16.572Z,2.33
2022-11-17T01:37:44.437Z,2.00
2022-11-17T01:40:14.943Z,2.13
2022-11-17T01:42:42.766Z,1.80
2022-11-17T01:45:21.751Z,2.23
2022-11-17T01:47:52.315Z,2.00
2022-11-17T01:50:26.037Z,2.00
2022-11-17T01:52:56.934Z,1.80
2022-11-17T01:55:29.474Z,2.23
2022-11-17T01:57:59.915Z,1.90
2022-11-17T02:00:28.930Z,1.80
2022-11-17T02:02:57.626Z,1.70
2022-11-17T02:05:37.810Z,1.80
2022-11-17T02:08:07.854Z,1.80
2022-11-17T02:10:38.149Z,1.43
2022-11-17T02:13:06.607Z,1.60
2022-11-17T02:15:34.493Z,1.90
2022-11-17T02:18:03.249Z,1.60
2022-11-17T02:20:42.669Z,1.50
2022-11-17T02:23:38.080Z,1.77
2022-11-17T02:26:22.726Z,1.37
2022-11-17T02:28:58.085Z,1.10
2022-11-17T02:31:34.082Z,1.53
2022-11-17T02:34:12.356Z,1.10
2022-11-17T02:36:47.405Z,1.20
2022-11-17T02:39:21.764Z,1.30
2022-11-17T02:41:56.912Z,1.43
2022-11-17T02:44:32.548Z,1.23
2022-11-17T02:47:08.027Z,1.30
2022-11-17T02:49:38.531Z,1.30
2022-11-17T02:52:09.000Z,1.40
2022-11-17T02:54:37.143Z,1.23
2022-11-17T02:57:05.147Z,1.27
2022-11-17T02:59:36.495Z,1.10
2022-11-17T03:02:29.080Z,1.10
2022-11-17T03:05:10.648Z,1.33
2022-11-17T03:07:52.088Z,1.30
2022-11-17T03:10:23.172Z,1.30
2022-11-17T03:12:56.224Z,1.00
2022-11-17T03:15:33.586Z,1.50
2022-11-17T03:18:09.551Z,1.20
2022-11-17T03:20:46.448Z,1.50
2022-11-17T03:23:19.133Z,1.20
2022-11-17T03:25:51.395Z,1.53
2022-11-17T03:28:22.227Z,1.33
2022-11-17T03:30:53.332Z,1.20
2022-11-17T03:33:25.674Z,1.70
2022-11-17T03:36:01.908Z,1.43
2022-11-17T03:38:34.994Z,1.10
2022-11-17T03:41:06.680Z,1.57
2022-11-17T03:43:34.908Z,1.50
2022-11-17T03:46:08.419Z,1.27
2022-11-17T03:48:39.356Z,1.63
2022-11-17T03:51:12.057Z,1.53
2022-11-17T03:53:39.911Z,1.00
2022-11-17T03:56:16.618Z,1.23
2022-11-17T03:58:51.066Z,1.50
2022-11-17T04:01:21.633Z,1.43
2022-11-17T04:03:49.702Z,1.27
2022-11-17T04:06:17.675Z,1.60
2022-11-17T04:08:45.818Z,1.27
2022-11-17T04:11:31.018Z,1.27
2022-11-17T04:14:16.573Z,1.40
2022-11-17T04:16:45.808Z,1.70
2022-11-17T04:19:13.684Z,1.37
2022-11-17T04:21:41.555Z,1.00
2022-11-17T04:24:10.079Z,1.23
2022-11-17T04:26:57.940Z,1.30
2022-11-17T04:29:25.813Z,1.60
2022-11-17T04:31:55.049Z,1.37
2022-11-17T04:34:22.903Z,1.10
2022-11-17T04:36:50.917Z,1.20
2022-11-17T04:39:18.818Z,1.30
2022-11-17T04:41:54.737Z,1.20
2022-11-17T04:44:24.878Z,1.13
2022-11-17T04:46:54.599Z,1.17
2022-11-17T04:49:23.692Z,1.00
2022-11-17T04:51:52.490Z,0.90
2022-11-17T04:54:22.044Z,1.10
2022-11-17T04:56:49.931Z,1.10
2022-11-17T04:59:18.004Z,1.30
2022-11-17T05:01:46.113Z,1.20
2022-11-17T05:04:37.218Z,1.10
2022-11-17T05:07:05.469Z,1.53
2022-11-17T05:09:33.676Z,1.40
2022-11-17T05:12:19.044Z,1.50
2022-11-17T05:14:49.149Z,1.03
2022-11-17T05:17:16.551Z,1.40
2022-11-17T05:19:47.123Z,1.33
2022-11-17T05:22:34.963Z,1.33
2022-11-17T05:25:03.197Z,1.17
2022-11-17T05:27:31.277Z,0.90
2022-11-17T05:29:59.102Z,1.17
2022-11-17T05:32:27.013Z,1.10
2022-11-17T05:34:56.217Z,1.20
2022-11-17T05:37:24.140Z,1.30
2022-11-17T05:39:51.972Z,1.30
2022-11-17T05:42:19.832Z,1.20
2022-11-17T05:44:48.433Z,1.03
2022-11-17T05:47:16.425Z,1.10
2022-11-17T05:49:44.296Z,1.50
2022-11-17T05:52:13.645Z,1.40
2022-11-17T05:54:41.494Z,1.50
2022-11-17T05:57:12.944Z,1.30
2022-11-17T05:59:44.527Z,1.10
2022-11-17T06:02:15.941Z,1.13
2022-11-17T06:04:46.255Z,1.23
2022-11-17T06:07:15.867Z,1.20
2022-11-17T06:09:43.786Z,1.20
2022-11-17T06:12:12.768Z,1.40
2022-11-17T06:14:40.687Z,1.30
2022-11-17T06:17:17.538Z,1.33
2022-11-17T06:19:55.116Z,1.30
2022-11-17T06:22:26.271Z,1.20
2022-11-17T06:24:55.254Z,1.37
2022-11-17T06:27:25.473Z,1.20
2022-11-17T06:29:53.908Z,1.30
2022-11-17T06:32:21.868Z,1.30
2022-11-17T06:34:55.632Z,1.20
2022-11-17T06:37:25.897Z,1.13
2022-11-17T06:39:54.022Z,1.23
2022-11-17T06:42:42.804Z,1.20
2022-11-17T06:45:11.425Z,1.33
2022-11-17T06:47:39.279Z,1.23
2022-11-17T06:50:08.043Z,1.00
2022-11-17T06:52:37.357Z,1.63
2022-11-17T06:55:05.798Z,1.20
2022-11-17T06:57:33.729Z,1.27
2022-11-17T07:00:01.624Z,1.10
2022-11-17T07:02:31.920Z,1.10
2022-11-17T07:04:59.820Z,1.30
2022-11-17T07:07:27.778Z,1.07
2022-11-17T07:09:57.032Z,1.10
2022-11-17T07:12:25.006Z,1.00
2022-11-17T07:14:52.890Z,1.17
2022-11-17T07:17:20.769Z,1.10
2022-11-17T07:19:48.679Z,1.20
2022-11-17T07:22:16.576Z,1.23
2022-11-17T07:24:44.834Z,1.30
2022-11-17T07:27:14.122Z,1.10
2022-11-17T07:29:42.089Z,1.00
2022-11-17T07:32:13.803Z,1.50
2022-11-17T07:34:42.590Z,1.10
2022-11-17T07:37:10.471Z,1.10
2022-11-17T07:39:38.432Z,1.50
2022-11-17T07:42:06.448Z,1.37
2022-11-17T07:44:35.815Z,1.03
2022-11-17T07:47:04.013Z,1.00
2022-11-17T07:49:32.287Z,1.30
2022-11-17T07:52:00.295Z,0.80
2022-11-17T07:54:28.239Z,1.23
2022-11-17T07:56:56.123Z,0.80
2022-11-17T07:59:24.047Z,0.77
2022-11-17T08:01:53.348Z,1.00
2022-11-17T08:04:21.343Z,0.83
2022-11-17T08:06:49.341Z,1.00
2022-11-17T08:09:17.534Z,1.20
2022-11-17T08:11:45.406Z,0.80
2022-11-17T08:14:13.363Z,1.07
2022-11-17T08:16:41.290Z,0.93
2022-11-17T08:19:12.040Z,0.97
2022-11-17T08:21:41.123Z,0.77
2022-11-17T08:24:09.357Z,0.80
2022-11-17T08:26:37.401Z,0.50
2022-11-17T08:29:05.329Z,0.53
2022-11-17T08:31:33.848Z,0.80
2022-11-17T08:34:01.802Z,0.60
2022-11-17T08:36:31.606Z,0.87
2022-11-17T08:38:59.532Z,0.80
2022-11-17T08:41:27.484Z,1.00
2022-11-17T08:43:55.409Z,0.90
2022-11-17T08:46:23.364Z,0.90
2022-11-17T08:48:56.932Z,0.93
2022-11-17T08:51:25.327Z,0.60
2022-11-17T08:53:54.602Z,0.83
2022-11-17T08:56:22.832Z,0.70
2022-11-17T08:58:50.736Z,0.60
2022-11-17T09:01:18.850Z,0.70
2022-11-17T09:03:48.495Z,0.80
2022-11-17T09:06:17.850Z,0.77
2022-11-17T09:08:47.400Z,0.80
2022-11-17T09:11:17.618Z,0.60
2022-11-17T09:13:46.942Z,0.50
2022-11-17T09:16:16.118Z,0.77
2022-11-17T09:18:44.061Z,0.60
2022-11-17T09:21:15.094Z,0.87
2022-11-17T09:23:43.089Z,0.90
2022-11-17T09:26:13.159Z,0.80
2022-11-17T09:28:42.647Z,0.57
2022-11-17T09:31:12.517Z,0.50
2022-11-17T09:33:40.771Z,0.90
2022-11-17T09:36:09.495Z,0.80
2022-11-17T09:38:38.926Z,0.63
2022-11-17T09:41:22.300Z,0.87
2022-11-17T09:43:58.009Z,0.90
2022-11-17T09:46:33.353Z,0.60
2022-11-17T09:49:11.037Z,2.13
2022-11-17T09:51:43.451Z,0.77
2022-11-17T09:54:19.550Z,0.60
2022-11-17T09:56:48.301Z,0.67
2022-11-17T09:59:21.788Z,0.80
2022-11-17T10:01:49.861Z,0.60
2022-11-17T10:04:18.623Z,0.70
2022-11-17T10:06:50.695Z,0.53
2022-11-17T10:09:26.684Z,0.87
2022-11-17T10:11:55.790Z,0.70
2022-11-17T10:14:29.086Z,0.83
2022-11-17T10:16:59.367Z,0.43
2022-11-17T10:19:28.878Z,0.40
2022-11-17T10:22:13.534Z,0.70
2022-11-17T10:24:43.771Z,0.80
2022-11-17T10:27:21.052Z,0.60
2022-11-17T10:30:01.281Z,0.47
2022-11-17T10:32:31.031Z,0.53
2022-11-17T10:35:15.007Z,0.50
2022-11-17T10:37:46.140Z,0.60
2022-11-17T10:40:25.096Z,0.50
2022-11-17T10:43:04.030Z,0.40
2022-11-17T10:45:34.562Z,0.60
2022-11-17T10:48:19.819Z,0.70
2022-11-17T10:50:53.870Z,0.70
2022-11-17T10:53:31.124Z,1.03
2022-11-17T10:56:03.601Z,0.83
2022-11-17T10:58:32.947Z,0.50
2022-11-17T11:01:04.226Z,0.60
2022-11-17T11:03:34.195Z,0.63
2022-11-17T11:06:05.444Z,0.83
2022-11-17T11:08:46.940Z,0.73
2022-11-17T11:11:25.227Z,0.77
2022-11-17T11:13:57.253Z,0.60
2022-11-17T11:16:30.766Z,0.50
2022-11-17T11:18:59.470Z,0.80
2022-11-17T11:21:47.851Z,1.13
2022-11-17T11:24:24.420Z,1.33
2022-11-17T11:27:00.917Z,0.63
2022-11-17T11:29:42.283Z,0.77
2022-11-17T11:32:24.108Z,1.27
2022-11-17T11:35:31.697Z,0.90
2022-11-17T11:38:07.645Z,0.83
2022-11-17T11:40:39.383Z,1.30
2022-11-17T11:43:25.712Z,1.33
2022-11-17T11:46:01.064Z,1.00
2022-11-17T11:48:33.910Z,0.77
2022-11-17T11:51:05.043Z,1.00
2022-11-17T11:53:42.138Z,0.90
2022-11-17T11:56:16.745Z,0.97
2022-11-17T11:58:52.377Z,0.93
2022-11-17T12:01:23.314Z,1.23
2022-11-17T12:04:02.738Z,1.20
2022-11-17T12:06:43.829Z,0.83
2022-11-17T12:09:25.111Z,0.70
2022-11-17T12:12:03.678Z,1.57
2022-11-17T12:14:33.371Z,0.90
2022-11-17T12:17:18.664Z,1.17
2022-11-17T12:19:57.219Z,0.87
2022-11-17T12:22:49.261Z,1.00
2022-11-17T12:25:19.639Z,0.93
2022-11-17T12:27:49.867Z,1.13
2022-11-17T12:30:47.546Z,0.70
2022-11-17T12:33:15.483Z,0.80
2022-11-17T12:35:45.003Z,1.00
2022-11-17T12:38:41.493Z,1.43
2022-11-17T12:41:09.400Z,1.00
2022-11-17T12:43:37.313Z,0.90
2022-11-17T12:46:25.945Z,1.40
2022-11-17T12:49:04.680Z,0.73
2022-11-17T12:51:41.190Z,1.07
2022-11-17T12:54:20.963Z,0.77
2022-11-17T12:56:58.073Z,1.10
2022-11-17T13:00:05.348Z,0.90
2022-11-17T13:02:46.286Z,0.80
2022-11-17T13:05:19.272Z,0.90
2022-11-17T13:07:48.698Z,1.10
2022-11-17T13:10:34.310Z,1.00
2022-11-17T13:13:13.598Z,0.77
2022-11-17T13:15:43.379Z,0.60
2022-11-17T13:18:17.514Z,1.00
2022-11-17T13:20:48.860Z,0.70
2022-11-17T13:23:23.399Z,1.00
2022-11-17T13:25:52.011Z,0.90
2022-11-17T13:28:30.924Z,0.77
2022-11-17T13:30:59.357Z,1.00
2022-11-17T13:33:28.636Z,1.20
2022-11-17T13:36:16.201Z,0.60
2022-11-17T13:38:54.652Z,0.67
2022-11-17T13:41:24.818Z,1.13
2022-11-17T13:43:54.056Z,0.63
2022-11-17T13:46:22.173Z,0.80
2022-11-17T13:48:51.340Z,1.00
2022-11-17T13:51:24.933Z,0.87
2022-11-17T13:53:56.619Z,0.97
2022-11-17T13:56:27.779Z,0.83
2022-11-17T13:58:56.216Z,1.10
2022-11-17T14:01:28.335Z,1.17
2022-11-17T14:04:19.821Z,0.90
2022-11-17T14:06:59.765Z,0.90
2022-11-17T14:09:30.789Z,1.00
2022-11-17T14:11:59.874Z,0.90
2022-11-17T14:14:33.882Z,0.73
2022-11-17T14:17:13.226Z,1.27
2022-11-17T14:19:41.210Z,1.20
2022-11-17T14:22:30.864Z,0.90
2022-11-17T14:25:01.062Z,1.00
2022-11-17T14:27:41.479Z,0.97
2022-11-17T14:30:15.748Z,1.30
2022-11-17T14:32:43.673Z,0.90
2022-11-17T14:35:14.477Z,1.00
2022-11-17T14:37:42.833Z,0.90
2022-11-17T14:40:16.021Z,0.77
2022-11-17T14:42:43.910Z,0.77
2022-11-17T14:45:14.654Z,1.07
2022-11-17T14:47:42.966Z,1.10
2022-11-17T14:50:14.061Z,0.90
2022-11-17T14:52:43.761Z,0.63
2022-11-17T14:55:12.568Z,1.00
2022-11-17T14:57:41.841Z,1.00
2022-11-17T15:00:17.247Z,1.00
2022-11-17T15:02:48.099Z,1.23
2022-11-17T15:05:16.174Z,1.00
2022-11-17T15:07:44.187Z,1.07
2022-11-17T15:10:12.095Z,0.83
2022-11-17T15:12:41.373Z,1.10
2022-11-17T15:15:09.903Z,0.93
2022-11-17T15:17:37.766Z,1.30
2022-11-17T15:20:06.777Z,0.90
2022-11-17T15:22:34.698Z,1.20
2022-11-17T15:25:02.900Z,0.87
2022-11-17T15:27:31.840Z,1.30
2022-11-17T15:30:01.136Z,1.00
2022-11-17T15:32:29.120Z,0.80
2022-11-17T15:34:56.995Z,1.37
2022-11-17T15:37:24.839Z,0.90
2022-11-17T15:39:52.681Z,1.27
2022-11-17T15:42:20.641Z,0.80
2022-11-17T15:44:48.495Z,0.83
2022-11-17T15:47:17.717Z,0.67
2022-11-17T15:49:46.783Z,1.03
2022-11-17T15:52:14.700Z,1.10
2022-11-17T15:54:42.549Z,0.83
2022-11-17T15:57:10.346Z,0.87
2022-11-17T15:59:38.186Z,0.90
2022-11-17T16:02:09.583Z,0.87
2022-11-17T16:04:38.818Z,0.77
2022-11-17T16:07:06.774Z,0.90
2022-11-17T16:09:35.035Z,1.07
2022-11-17T16:12:03.069Z,1.13
2022-11-17T16:14:31.056Z,0.80
2022-11-17T16:16:59.247Z,0.97
2022-11-17T16:19:27.113Z,0.83
2022-11-17T16:21:56.377Z,1.43
2022-11-17T16:24:24.278Z,1.00
2022-11-17T16:26:52.121Z,0.90
2022-11-17T16:29:20.125Z,1.23
2022-11-17T16:31:48.103Z,0.90
2022-11-17T16:34:17.899Z,0.70
2022-11-17T16:36:46.109Z,0.97
2022-11-17T16:39:17.721Z,0.80
2022-11-17T16:41:46.660Z,1.00
2022-11-17T16:44:16.519Z,1.07
2022-11-17T16:46:45.645Z,1.10
2022-11-17T16:49:15.647Z,0.83
2022-11-17T16:51:48.319Z,1.00
2022-11-17T16:54:18.155Z,1.13
2022-11-17T16:56:46.180Z,1.17
2022-11-17T16:59:14.848Z,0.90
2022-11-17T17:01:42.978Z,0.87
2022-11-17T17:04:12.205Z,1.30
2022-11-17T17:06:42.007Z,0.87
2022-11-17T17:09:11.952Z,1.27
2022-11-17T17:11:41.510Z,1.20
2022-11-17T17:14:12.805Z,0.90
2022-11-17T17:16:41.255Z,1.13
2022-11-17T17:19:11.577Z,1.20
2022-11-17T17:21:41.795Z,1.17
2022-11-17T17:24:10.591Z,1.10
2022-11-17T17:26:39.675Z,1.47
2022-11-17T17:29:09.152Z,1.40
2022-11-17T17:31:38.858Z,1.23
2022-11-17T17:34:08.364Z,1.07
2022-11-17T17:36:37.233Z,1.10
2022-11-17T17:39:05.928Z,0.83
2022-11-17T17:41:36.778Z,1.03
2022-11-17T17:44:06.478Z,1.20
2022-11-17T17:46:38.937Z,1.03
2022-11-17T17:49:07.599Z,1.30
2022-11-17T17:51:39.936Z,1.33
2022-11-17T17:54:08.278Z,1.40
2022-11-17T17:56:36.331Z,1.50
2022-11-17T17:59:04.214Z,1.00
2022-11-17T18:01:33.429Z,1.20
2022-11-17T18:04:05.433Z,1.10
2022-11-17T18:06:37.402Z,1.17
2022-11-17T18:09:05.738Z,1.40
2022-11-17T18:11:33.944Z,1.20
2022-11-17T18:14:01.992Z,0.90
2022-11-17T18:16:31.771Z,1.10
2022-11-17T18:19:02.929Z,1.50
2022-11-17T18:21:31.044Z,0.80
2022-11-17T18:24:00.666Z,1.07
2022-11-17T18:26:30.436Z,1.30
2022-11-17T18:29:00.186Z,1.37
2022-11-17T18:31:30.058Z,1.23
2022-11-17T18:33:59.918Z,1.30
2022-11-17T18:36:30.010Z,1.37
2022-11-17T18:38:58.740Z,1.27
2022-11-17T18:41:27.487Z,1.20
2022-11-17T18:43:56.069Z,1.10
2022-11-17T18:46:25.404Z,1.10
2022-11-17T18:48:54.013Z,1.20
2022-11-17T18:51:23.490Z,1.20
2022-11-17T18:53:54.661Z,1.10
2022-11-17T18:56:24.526Z,1.63
2022-11-17T18:58:52.753Z,1.30
2022-11-17T19:01:22.247Z,1.23
2022-11-17T19:03:52.243Z,1.00
2022-11-17T19:06:21.328Z,1.07
2022-11-17T19:08:50.851Z,1.10
2022-11-17T19:11:22.063Z,0.90
2022-11-17T19:13:50.096Z,1.27
2022-11-17T19:16:20.127Z,1.10
2022-11-17T19:18:49.792Z,1.03
2022-11-17T19:21:19.878Z,1.07
2022-11-17T19:23:51.960Z,1.20
2022-11-17T19:26:23.660Z,1.20
2022-11-17T19:28:55.573Z,1.20
2022-11-17T19:31:23.673Z,1.20
2022-11-17T19:33:51.837Z,1.10
2022-11-17T19:36:21.935Z,1.23
2022-11-17T19:38:51.542Z,1.20
2022-11-17T19:41:22.481Z,1.00
2022-11-17T19:43:54.212Z,1.40
2022-11-17T19:46:23.140Z,1.27
2022-11-17T19:48:51.461Z,1.23
2022-11-17T19:51:21.449Z,1.37
2022-11-17T19:53:50.602Z,1.10
2022-11-17T19:56:19.328Z,1.57
2022-11-17T19:58:49.199Z,1.30
2022-11-17T20:01:19.559Z,1.27
2022-11-17T20:03:47.996Z,1.40
2022-11-17T20:06:17.757Z,1.60
2022-11-17T20:08:46.184Z,1.43
2022-11-17T20:11:15.599Z,1.20
2022-11-17T20:13:44.283Z,1.40
2022-11-17T20:16:17.227Z,1.30
2022-11-17T20:18:46.493Z,1.30
2022-11-17T20:21:14.901Z,1.40
2022-11-17T20:23:43.431Z,1.37
2022-11-17T20:26:14.522Z,1.20
2022-11-17T20:28:42.943Z,1.37
2022-11-17T20:31:13.845Z,1.13
2022-11-17T20:33:42.965Z,1.60
2022-11-17T20:36:13.525Z,1.43
2022-11-17T20:38:41.503Z,1.63
2022-11-17T20:41:09.942Z,1.80
2022-11-17T20:43:37.860Z,1.43
2022-11-17T20:46:06.037Z,1.50
2022-11-17T20:48:36.274Z,1.50
2022-11-17T20:51:06.171Z,1.70
2022-11-17T20:53:34.450Z,1.67
2022-11-17T20:56:03.958Z,1.20
2022-11-17T20:58:32.245Z,1.57
2022-11-17T21:01:06.668Z,1.50
2022-11-17T21:03:36.179Z,1.40
2022-11-17T21:06:05.835Z,1.60
2022-11-17T21:08:35.852Z,1.77
2022-11-17T21:11:05.953Z,1.90
2022-11-17T21:13:35.334Z,1.50
2022-11-17T21:16:08.537Z,1.40
2022-11-17T21:18:39.687Z,1.30
2022-11-17T21:21:09.559Z,1.60
2022-11-17T21:23:38.270Z,1.60
2022-11-17T21:26:07.280Z,1.80
2022-11-17T21:28:35.377Z,1.70
2022-11-17T21:31:06.532Z,1.40
2022-11-17T21:33:34.558Z,1.67
2022-11-17T21:36:05.033Z,1.97
2022-11-17T21:38:33.618Z,1.50
2022-11-17T21:41:05.026Z,1.53
2022-11-17T21:43:33.524Z,1.50
2022-11-17T21:46:05.307Z,1.87
2022-11-17T21:48:33.280Z,1.87
2022-11-17T21:51:01.446Z,1.57
2022-11-17T21:53:31.091Z,1.80
2022-11-17T21:56:02.336Z,1.70
2022-11-17T21:58:30.654Z,2.00
2022-11-17T22:00:58.717Z,1.70
2022-11-17T22:03:27.610Z,1.60
2022-11-17T22:06:01.027Z,2.27
2022-11-17T22:08:31.550Z,2.70
2022-11-17T22:11:04.334Z,1.60
2022-11-17T22:13:32.295Z,1.60
2022-11-17T22:16:04.341Z,1.67
2022-11-17T22:18:32.312Z,1.67
2022-11-17T22:21:00.208Z,2.03
2022-11-17T22:23:28.745Z,1.50
2022-11-17T22:25:59.766Z,1.60
2022-11-17T22:28:28.127Z,1.53
2022-11-17T22:30:56.740Z,1.90
2022-11-17T22:33:25.036Z,1.70
2022-11-17T22:35:52.941Z,1.70
2022-11-17T22:38:20.834Z,1.70
2022-11-17T22:40:48.687Z,1.70
2022-11-17T22:43:17.901Z,1.60
2022-11-17T22:45:45.767Z,1.60
2022-11-17T22:48:13.692Z,1.73
2022-11-17T22:50:41.625Z,1.63
2022-11-17T22:53:09.549Z,1.60
2022-11-17T22:55:37.621Z,1.67
2022-11-17T22:58:05.572Z,2.20
2022-11-17T23:00:34.813Z,1.97
2022-11-17T23:03:02.768Z,2.00
2022-11-17T23:05:30.869Z,1.80
2022-11-17T23:07:58.753Z,1.60
2022-11-17T23:10:26.857Z,1.87
2022-11-17T23:12:55.185Z,1.90
2022-11-17T23:15:23.092Z,1.97
2022-11-17T23:17:52.337Z,1.73
2022-11-17T23:20:20.202Z,1.93
2022-11-17T23:22:48.079Z,1.97
2022-11-17T23:25:16.051Z,1.83
2022-11-17T23:27:43.949Z,2.10
2022-11-17T23:30:13.255Z,2.20
2022-11-17T23:32:41.161Z,1.70
2022-11-17T23:35:10.670Z,1.87
2022-11-17T23:37:38.572Z,2.13
2022-11-17T23:40:07.442Z,2.00
2022-11-17T23:42:40.128Z,1.80
2022-11-17T23:45:11.940Z,1.93
2022-11-17T23:47:40.135Z,1.90
2022-11-17T23:50:10.486Z,1.80
2022-11-17T23:52:38.343Z,2.30
2022-11-17T23:55:06.923Z,1.53
2022-11-17T23:57:34.777Z,1.87
